Time;durP1;ratioP1;P1;durP2;ratioP2;P2;SDS_P1;SDS_P2;PMS_P1;PMS_P2;Temp;Humidity;BMP_temperature;BMP_pressure;BME280_temperature;BME280_humidity;BME280_pressure;Samples;Min_cycle;Max_cycle;Signal;HPM_P1;HPM_P2
2022/06/14 00:01:49;;;;;;;;;;;;;;;23.65;39.66;100828.69;2092338;28;644;-55
2022/06/14 00:02:49;;;;;;;;;;;;;;;23.62;39.61;100831.53;2092315;28;835;-55
2022/06/14 00:03:49;;;;;;;;;;;;;;;23.60;40.49;100831.63;2092262;28;993;-55
2022/06/14 00:04:50;;;;;;;;;;;;;;;23.59;40.17;100831.69;2092244;28;989;-55
2022/06/14 00:05:50;;;;;;;;;;;;;;;23.60;40.72;100833.44;2092251;28;771;-55
2022/06/14 00:06:50;;;;;;;;;;;;;;;23.58;40.67;100835.34;2092224;28;759;-55
2022/06/14 00:07:50;;;;;;;;;;;;;;;23.58;40.33;100835.34;2091097;28;1974;-55
2022/06/14 00:08:51;;;;;;;;;;;;;;;23.60;39.60;100833.44;2092144;28;1021;-55
2022/06/14 00:09:51;;;;;;;;;;;;;;;23.60;39.94;100838.84;2092161;28;788;-55
2022/06/14 00:10:52;;;;;;;;;;;;;;;23.61;39.80;100835.19;2092153;28;748;-55
2022/06/14 00:11:52;;;;;;;;;;;;;;;23.60;39.80;100833.44;2092164;28;978;-55
2022/06/14 00:12:52;;;;;;;;;;;;;;;23.59;40.59;100835.28;2092178;28;831;-55
2022/06/14 00:13:54;;;;;;;;;;;;;;;23.59;40.39;100831.69;2092159;28;886;-55
2022/06/14 00:14:54;;;;;;;;;;;;;;;23.59;40.71;100835.28;2092153;28;974;-55
2022/06/14 00:15:54;;;;;;;;;;;;;;;23.59;39.79;100831.69;2092159;28;847;-55
2022/06/14 00:16:54;;;;;;;;;;;;;;;23.58;40.81;100835.34;2092189;28;981;-55
2022/06/14 00:17:54;;;;;;;;;;;;;;;23.58;40.01;100833.53;2092142;28;985;-55
2022/06/14 00:18:54;;;;;;;;;;;;;;;23.57;39.84;100829.06;2092095;28;768;-55
2022/06/14 00:19:55;;;;;;;;;;;;;;;23.54;40.59;100831.91;2092111;28;898;-55
2022/06/14 00:20:55;;;;;;;;;;;;;;;23.52;40.35;100834.69;2092117;28;843;-55
2022/06/14 00:22:01;;;;;;;;;;;;;;;23.51;40.56;100840.16;2092109;28;809;-55
2022/06/14 00:23:02;;;;;;;;;;;;;;;23.50;40.72;100838.41;2092145;28;894;-55
2022/06/14 00:24:04;;;;;;;;;;;;;;;23.49;39.97;100840.25;2092080;28;1009;-55
2022/06/14 00:25:04;;;;;;;;;;;;;;;23.48;40.17;100841.19;2092084;28;862;-55
2022/06/14 00:26:05;;;;;;;;;;;;;;;23.48;40.67;100841.19;2091982;28;1211;-56
2022/06/14 00:27:05;;;;;;;;;;;;;;;23.48;40.88;100841.19;2092046;28;854;-55
2022/06/14 00:28:08;;;;;;;;;;;;;;;23.48;40.22;100840.28;2091831;28;1989;-55
2022/06/14 00:29:08;;;;;;;;;;;;;;;23.48;40.73;100840.28;2092030;28;864;-55
2022/06/14 00:30:09;;;;;;;;;;;;;;;23.49;40.94;100842.06;2092011;28;898;-55
2022/06/14 00:31:13;;;;;;;;;;;;;;;23.48;41.13;100843.00;2092025;28;1020;-55
2022/06/14 00:32:14;;;;;;;;;;;;;;;23.46;40.94;100834.97;2092032;28;938;-55
2022/06/14 00:33:14;;;;;;;;;;;;;;;23.46;40.59;100840.38;2092034;28;894;-55
2022/06/14 00:34:14;;;;;;;;;;;;;;;23.44;40.53;100842.28;2091978;28;985;-56
2022/06/14 00:35:15;;;;;;;;;;;;;;;23.43;40.52;100840.53;2092007;28;846;-55
2022/06/14 00:36:20;;;;;;;;;;;;;;;23.43;41.19;100839.63;2092025;28;986;-55
2022/06/14 00:37:20;;;;;;;;;;;;;;;23.44;40.94;100846.78;2092010;28;1227;-55
2022/06/14 00:38:20;;;;;;;;;;;;;;;23.43;41.41;100842.31;2091972;28;787;-55
2022/06/14 00:39:20;;;;;;;;;;;;;;;23.42;41.05;100841.47;2091986;28;791;-55
2022/06/14 00:40:22;;;;;;;;;;;;;;;23.42;41.37;100840.56;2091939;28;898;-55
2022/06/14 00:41:34;;;;;;;;;;;;;;;23.43;41.65;100842.31;2091847;28;1032;-55
2022/06/14 00:42:35;;;;;;;;;;;;;;;23.39;41.46;100842.47;2091937;28;1032;-55
2022/06/14 00:43:35;;;;;;;;;;;;;;;23.38;41.85;100839.84;2091970;28;823;-56
2022/06/14 00:44:35;;;;;;;;;;;;;;;23.38;41.77;100839.84;2091945;28;977;-55
2022/06/14 00:45:35;;;;;;;;;;;;;;;23.38;41.71;100845.25;2091961;28;911;-55
2022/06/14 00:46:53;;;;;;;;;;;;;;;23.37;41.44;100846.19;2091943;28;795;-55
2022/06/14 00:47:56;;;;;;;;;;;;;;;23.36;41.98;100842.59;2091850;28;1960;-55
2022/06/14 00:49:03;;;;;;;;;;;;;;;23.36;41.82;100841.75;2091943;28;989;-55
2022/06/14 00:50:05;;;;;;;;;;;;;;;23.36;41.29;100848.00;2091859;28;918;-55
2022/06/14 00:51:13;;;;;;;;;;;;;;;23.35;41.84;100845.41;2091812;28;1283;-55
2022/06/14 00:52:19;;;;;;;;;;;;;;;23.34;41.80;100844.50;2091873;28;800;-55
2022/06/14 00:53:22;;;;;;;;;;;;;;;23.34;41.60;100847.19;2091966;28;762;-55
2022/06/14 00:54:26;;;;;;;;;;;;;;;23.34;41.89;100840.94;2091806;28;1025;-55
2022/06/14 00:55:33;;;;;;;;;;;;;;;23.32;41.49;100846.38;2091948;28;849;-55
2022/06/14 00:56:45;;;;;;;;;;;;;;;23.32;42.08;100842.81;2091846;28;917;-55
2022/06/14 00:57:52;;;;;;;;;;;;;;;23.32;42.04;100837.41;2091795;28;997;-55
2022/06/14 00:58:55;;;;;;;;;;;;;;;23.33;42.30;100836.47;2091845;28;826;-55
2022/06/14 01:00:04;;;;;;;;;;;;;;;23.32;42.29;100843.69;2091831;28;1080;-55
2022/06/14 01:01:07;;;;;;;;;;;;;;;23.32;42.32;100840.13;2091708;28;983;-55
2022/06/14 01:02:13;;;;;;;;;;;;;;;23.30;42.51;100848.28;2091783;28;953;-55
2022/06/14 01:03:16;;;;;;;;;;;;;;;23.29;41.65;100851.06;2091860;28;768;-55
2022/06/14 01:04:18;;;;;;;;;;;;;;;23.29;42.55;100842.97;2091763;28;1939;-55
2022/06/14 01:05:28;;;;;;;;;;;;;;;23.29;42.60;100846.53;2091788;28;964;-55
2022/06/14 01:06:41;;;;;;;;;;;;;;;23.28;42.41;100852.00;2091806;28;811;-55
2022/06/14 01:07:43;;;;;;;;;;;;;;;23.27;42.74;100850.25;2091695;28;1892;-56
2022/06/14 01:08:48;;;;;;;;;;;;;;;23.26;42.73;100854.78;2091752;28;1001;-55
2022/06/14 01:09:50;;;;;;;;;;;;;;;23.27;42.08;100851.13;2091623;28;1854;-55
2022/06/14 01:10:50;;;;;;;;;;;;;;;23.27;42.10;100855.66;2091759;28;961;-55
2022/06/14 01:11:58;;;;;;;;;;;;;;;23.26;42.11;100852.06;2091729;28;814;-55
2022/06/14 01:13:03;;;;;;;;;;;;;;;23.27;42.70;100853.81;2091758;28;886;-55
2022/06/14 01:14:05;;;;;;;;;;;;;;;23.27;42.84;100861.06;2091775;28;1048;-55
2022/06/14 01:15:08;;;;;;;;;;;;;;;23.28;42.89;100854.72;2091725;28;841;-55
2022/06/14 01:16:09;;;;;;;;;;;;;;;23.26;42.14;100859.31;2091767;28;948;-55
2022/06/14 01:17:11;;;;;;;;;;;;;;;23.26;42.85;100851.22;2091715;28;771;-56
2022/06/14 01:18:12;;;;;;;;;;;;;;;23.26;43.04;100862.00;2091645;28;834;-55
2022/06/14 01:19:21;;;;;;;;;;;;;;;23.25;42.63;100855.75;2091369;28;989;-55
2022/06/14 01:20:22;;;;;;;;;;;;;;;23.26;42.10;100860.19;2091768;28;909;-55
2022/06/14 01:21:23;;;;;;;;;;;;;;;23.25;42.33;100861.16;2091705;28;814;-55
2022/06/14 01:22:25;;;;;;;;;;;;;;;23.24;42.82;100859.41;2091702;28;716;-55
2022/06/14 01:23:25;;;;;;;;;;;;;;;23.23;43.19;100857.63;2091663;28;815;-55
2022/06/14 01:24:26;;;;;;;;;;;;;;;23.22;42.65;100858.56;2091705;28;913;-55
2022/06/14 01:25:29;;;;;;;;;;;;;;;23.23;43.26;100852.22;2091654;28;779;-56
2022/06/14 01:26:31;;;;;;;;;;;;;;;23.22;42.35;100861.25;2091760;28;846;-55
2022/06/14 01:27:32;;;;;;;;;;;;;;;23.21;42.90;100865.75;2091487;28;1062;-55
2022/06/14 01:28:34;;;;;;;;;;;;;;;23.19;43.21;100869.50;2091696;28;1973;-55
2022/06/14 01:29:36;;;;;;;;;;;;;;;23.19;42.56;100864.94;2091654;28;1060;-55
2022/06/14 01:30:41;;;;;;;;;;;;;;;23.19;42.99;100855.97;2091684;28;1323;-56
2022/06/14 01:31:42;;;;;;;;;;;;;;;23.20;42.73;100855.91;2091688;28;878;-56
2022/06/14 01:32:45;;;;;;;;;;;;;;;23.20;43.20;100858.59;2091651;28;1062;-55
2022/06/14 01:33:51;;;;;;;;;;;;;;;23.19;43.28;100853.28;2091604;28;925;-55
2022/06/14 01:34:53;;;;;;;;;;;;;;;23.18;43.29;100860.50;2091667;28;787;-56
2022/06/14 01:35:57;;;;;;;;;;;;;;;23.21;43.41;100856.78;2091635;28;759;-55
2022/06/14 01:36:58;;;;;;;;;;;;;;;23.19;43.24;100850.59;2091630;28;837;-56
2022/06/14 01:38:00;;;;;;;;;;;;;;;23.19;43.29;100858.69;2091625;28;977;-55
2022/06/14 01:39:03;;;;;;;;;;;;;;;23.18;42.65;100849.69;2091579;28;941;-55
2022/06/14 01:40:05;;;;;;;;;;;;;;;23.19;43.23;100854.16;2091595;28;870;-55
2022/06/14 01:41:15;;;;;;;;;;;;;;;23.18;43.32;100857.78;2091600;28;1011;-55
2022/06/14 01:42:18;;;;;;;;;;;;;;;23.17;43.33;100853.34;2091630;28;827;-55
2022/06/14 01:43:21;;;;;;;;;;;;;;;23.18;42.44;100855.09;2091711;28;779;-55
2022/06/14 01:44:40;;;;;;;;;;;;;;;23.18;42.93;100854.22;2091618;28;900;-55
2022/06/14 01:45:45;;;;;;;;;;;;;;;23.17;43.03;100853.34;2091606;28;985;-55
2022/06/14 01:46:45;;;;;;;;;;;;;;;23.17;43.45;100860.56;2091617;28;992;-55
2022/06/14 01:47:51;;;;;;;;;;;;;;;23.18;43.38;100859.63;2091492;28;1977;-55
2022/06/14 01:51:50;;;;;;;;;;;;;;;23.16;43.52;100859.69;2091560;28;994;-55
2022/06/14 01:51:58;;;;;;;;;;;;;;;23.15;43.44;100855.22;2091645;28;626;-55
2022/06/14 01:53:17;;;;;;;;;;;;;;;23.15;43.34;100857.06;2091618;28;871;-55
2022/06/14 01:54:22;;;;;;;;;;;;;;;23.14;43.51;100864.28;2091598;28;1026;-55
2022/06/14 01:55:39;;;;;;;;;;;;;;;23.15;43.62;100860.63;2091560;28;827;-55
2022/06/14 01:56:45;;;;;;;;;;;;;;;23.13;43.41;100859.81;2091515;28;831;-55
2022/06/14 01:58:14;;;;;;;;;;;;;;;23.15;42.81;100860.63;2091549;28;1030;-55
2022/06/14 01:59:36;;;;;;;;;;;;;;;23.14;43.32;100861.56;2066058;28;1265;-55
2022/06/14 02:00:41;;;;;;;;;;;;;;;23.12;43.64;100858.06;2066156;28;1037;-56
2022/06/14 02:02:03;;;;;;;;;;;;;;;23.13;43.56;100858.97;2066142;28;918;-55
2022/06/14 02:04:47;;;;;;;;;;;;;;;23.13;42.81;100864.34;2066316;28;743;-55
2022/06/14 02:05:54;;;;;;;;;;;;;;;23.13;43.14;100858.97;2066167;28;1026;-55
2022/06/14 02:07:01;;;;;;;;;;;;;;;23.12;43.62;100863.47;2066124;28;867;-55
2022/06/14 02:08:13;;;;;;;;;;;;;;;23.12;43.58;100854.50;2066135;28;1890;-55
2022/06/14 02:09:16;;;;;;;;;;;;;;;23.13;43.48;100858.97;2066171;28;1032;-56
2022/06/14 02:10:17;;;;;;;;;;;;;;;23.12;43.20;100868.88;2066075;28;1105;-55
2022/06/14 02:11:25;;;;;;;;;;;;;;;23.12;43.45;100857.19;2066081;28;1017;-55
2022/06/14 02:12:42;;;;;;;;;;;;;;;23.11;43.65;100864.41;2066113;28;1069;-55
2022/06/14 02:13:47;;;;;;;;;;;;;;;23.11;43.49;100861.69;2066087;28;832;-55
2022/06/14 02:14:50;;;;;;;;;;;;;;;23.11;43.64;100856.31;2066106;28;954;-55
2022/06/14 02:15:53;;;;;;;;;;;;;;;23.10;43.55;100859.94;2066112;28;985;-55
2022/06/14 02:16:57;;;;;;;;;;;;;;;23.11;43.29;100861.69;2066035;28;1005;-55
2022/06/14 02:18:06;;;;;;;;;;;;;;;23.10;42.99;100858.13;2066087;28;812;-57
2022/06/14 02:19:08;;;;;;;;;;;;;;;23.11;42.79;100864.41;2066090;28;852;-55
2022/06/14 02:20:15;;;;;;;;;;;;;;;23.11;42.99;100853.59;2066102;28;921;-55
2022/06/14 02:21:15;;;;;;;;;;;;;;;23.10;43.08;100859.94;2066125;28;879;-55
2022/06/14 02:22:18;;;;;;;;;;;;;;;23.10;43.00;100854.53;2057919;28;813;-55
2022/06/14 02:23:20;;;;;;;;;;;;;;;23.08;43.52;100856.44;2058229;28;883;-55
2022/06/14 02:24:24;;;;;;;;;;;;;;;23.09;43.66;100855.50;2066064;28;867;-55
2022/06/14 02:25:29;;;;;;;;;;;;;;;23.09;43.65;100855.50;2057964;28;978;-55
2022/06/14 02:26:32;;;;;;;;;;;;;;;23.07;43.92;100854.69;2058486;28;906;-55
2022/06/14 02:27:50;;;;;;;;;;;;;;;23.08;43.79;100859.13;2065903;28;1069;-55
2022/06/14 02:28:53;;;;;;;;;;;;;;;23.09;43.78;100858.19;2065981;28;1070;-55
2022/06/14 02:29:58;;;;;;;;;;;;;;;23.09;43.54;100860.91;2065961;28;1014;-55
2022/06/14 02:31:02;;;;;;;;;;;;;;;23.08;43.28;100857.34;2066426;28;977;-55
2022/06/14 02:32:06;;;;;;;;;;;;;;;23.07;43.43;100860.97;2067569;28;936;-55
2022/06/14 02:33:30;;;;;;;;;;;;;;;23.07;43.32;100857.38;2067621;28;733;-55
2022/06/14 02:34:33;;;;;;;;;;;;;;;23.08;43.83;100853.72;2057268;28;1127;-55
2022/06/14 02:35:37;;;;;;;;;;;;;;;23.08;43.41;100859.13;2067549;28;1036;-55
2022/06/14 02:36:40;;;;;;;;;;;;;;;23.07;43.42;100866.38;2087240;28;1009;-56
2022/06/14 02:37:52;;;;;;;;;;;;;;;23.08;42.94;100867.25;2092850;28;1307;-55
2022/06/14 02:39:01;;;;;;;;;;;;;;;23.07;43.85;100862.78;2092976;28;961;-56
2022/06/14 02:40:06;;;;;;;;;;;;;;;23.07;43.80;100857.38;2092973;28;803;-55
2022/06/14 02:41:10;;;;;;;;;;;;;;;23.07;43.14;100857.38;2092881;28;855;-56
2022/06/14 02:42:13;;;;;;;;;;;;;;;23.06;43.78;100861.03;2092919;28;894;-55
2022/06/14 02:43:17;;;;;;;;;;;;;;;23.05;43.59;100862.88;2092873;28;834;-55
2022/06/14 02:44:24;;;;;;;;;;;;;;;23.05;43.37;100865.56;2092855;28;1024;-55
2022/06/14 02:45:28;;;;;;;;;;;;;;;23.05;43.08;100861.97;2092852;28;851;-55
2022/06/14 02:46:33;;;;;;;;;;;;;;;23.04;44.00;100860.22;2092830;28;992;-55
2022/06/14 02:47:40;;;;;;;;;;;;;;;23.04;43.79;100862.91;2092883;28;831;-55
2022/06/14 02:48:44;;;;;;;;;;;;;;;23.04;43.72;100866.50;2092778;28;1953;-55
2022/06/14 02:49:54;;;;;;;;;;;;;;;23.03;43.96;100866.56;2092843;28;1174;-55
2022/06/14 02:50:59;;;;;;;;;;;;;;;23.03;43.19;100864.75;2092895;28;787;-55
2022/06/14 02:52:04;;;;;;;;;;;;;;;23.03;44.02;100867.47;2092917;28;984;-55
2022/06/14 02:53:09;;;;;;;;;;;;;;;23.02;43.41;100859.41;2092840;28;780;-55
2022/06/14 02:54:28;;;;;;;;;;;;;;;23.03;44.00;100863.88;2092823;28;866;-55
2022/06/14 02:55:30;;;;;;;;;;;;;;;23.02;43.61;100865.69;2092894;28;834;-55
2022/06/14 02:56:53;;;;;;;;;;;;;;;23.03;43.95;100869.25;2092759;28;841;-55
2022/06/14 02:58:01;;;;;;;;;;;;;;;23.02;43.63;100865.69;2092772;28;972;-55
2022/06/14 02:59:20;;;;;;;;;;;;;;;23.03;43.87;100863.88;2092753;28;917;-55
2022/06/14 03:00:23;;;;;;;;;;;;;;;23.01;43.77;100865.75;2092742;28;894;-55
2022/06/14 03:01:27;;;;;;;;;;;;;;;23.03;43.42;100869.25;2092737;28;847;-55
2022/06/14 03:02:33;;;;;;;;;;;;;;;23.03;44.17;100863.88;2092728;28;992;-55
2022/06/14 03:03:33;;;;;;;;;;;;;;;23.03;43.59;100864.75;2092799;28;850;-55
2022/06/14 03:04:41;;;;;;;;;;;;;;;23.02;43.97;100865.69;2092711;28;1005;-55
2022/06/14 03:05:41;;;;;;;;;;;;;;;23.01;43.91;100866.66;2092717;28;878;-55
2022/06/14 03:06:57;;;;;;;;;;;;;;;23.00;44.14;100870.28;2092731;28;842;-55
2022/06/14 03:08:03;;;;;;;;;;;;;;;23.01;44.21;100872.03;2092653;28;1894;-55
2022/06/14 03:09:15;;;;;;;;;;;;;;;23.01;44.18;100868.44;2083769;28;1001;-55
2022/06/14 03:10:16;;;;;;;;;;;;;;;23.00;43.62;100869.41;2085456;28;910;-55
2022/06/14 03:11:20;;;;;;;;;;;;;;;23.01;44.14;100858.53;2092757;28;764;-55
2022/06/14 03:12:31;;;;;;;;;;;;;;;23.01;43.60;100865.75;2092699;28;783;-55
2022/06/14 03:13:31;;;;;;;;;;;;;;;22.99;43.41;100865.84;2092738;28;874;-56
2022/06/14 03:14:32;;;;;;;;;;;;;;;23.00;44.14;100864.00;2092679;28;933;-55
2022/06/14 03:15:44;;;;;;;;;;;;;;;23.00;43.76;100861.28;2092637;28;904;-55
2022/06/14 03:16:47;;;;;;;;;;;;;;;23.01;43.52;100873.84;2092608;28;993;-55
2022/06/14 03:17:52;;;;;;;;;;;;;;;22.99;44.12;100870.34;2092596;28;989;-55
2022/06/14 03:19:11;;;;;;;;;;;;;;;22.99;44.21;100867.63;2092731;28;759;-55
2022/06/14 03:20:31;;;;;;;;;;;;;;;23.00;44.20;100873.00;2092639;28;1132;-55
2022/06/14 03:21:35;;;;;;;;;;;;;;;23.01;44.17;100873.84;2092068;28;930;-55
2022/06/14 03:22:45;;;;;;;;;;;;;;;22.99;43.90;100865.84;2092576;28;956;-55
2022/06/14 03:23:54;;;;;;;;;;;;;;;22.99;44.29;100864.94;2092602;28;1035;-55
2022/06/14 03:24:58;;;;;;;;;;;;;;;22.98;44.37;100864.06;2092598;28;977;-55
2022/06/14 03:26:07;;;;;;;;;;;;;;;22.99;43.56;100867.63;2092526;28;988;-55
2022/06/14 03:27:10;;;;;;;;;;;;;;;22.98;43.73;100866.78;2092533;28;909;-55
2022/06/14 03:28:16;;;;;;;;;;;;;;;22.98;43.59;100868.59;2092285;28;1975;-55
2022/06/14 03:29:24;;;;;;;;;;;;;;;22.98;44.13;100860.47;2092528;28;850;-55
2022/06/14 03:30:24;;;;;;;;;;;;;;;22.98;44.28;100865.88;2092507;28;981;-55
2022/06/14 03:31:56;;;;;;;;;;;;;;;22.96;44.21;100844.34;2092512;28;768;-56
2022/06/14 03:33:01;;;;;;;;;;;;;;;22.96;43.96;100855.16;2066983;28;1048;-56
2022/06/14 03:34:04;;;;;;;;;;;;;;;22.96;44.17;100855.16;2067039;28;990;-55
2022/06/14 03:35:11;;;;;;;;;;;;;;;22.95;44.23;100858.81;2067083;28;942;-56
2022/06/14 03:36:11;;;;;;;;;;;;;;;22.95;43.57;100859.69;2067058;28;1105;-55
2022/06/14 03:37:12;;;;;;;;;;;;;;;22.98;44.23;100860.47;2067070;28;991;-55
2022/06/14 03:38:16;;;;;;;;;;;;;;;22.97;43.49;100864.13;2067075;28;832;-55
2022/06/14 03:39:18;;;;;;;;;;;;;;;22.96;44.25;100865.97;2067039;28;867;-55
2022/06/14 03:40:19;;;;;;;;;;;;;;;22.97;43.57;100864.13;2066947;28;1547;-55
2022/06/14 03:41:22;;;;;;;;;;;;;;;22.98;44.37;100857.78;2067030;28;966;-55
2022/06/14 03:42:22;;;;;;;;;;;;;;;22.98;44.09;100863.19;2066809;28;848;-55
2022/06/14 03:43:22;;;;;;;;;;;;;;;22.97;44.27;100872.22;2066978;28;1018;-55
2022/06/14 03:44:25;;;;;;;;;;;;;;;22.95;43.89;100862.41;2067037;28;780;-55
2022/06/14 03:45:32;;;;;;;;;;;;;;;22.94;43.92;100865.16;2066997;28;922;-55
2022/06/14 03:46:32;;;;;;;;;;;;;;;22.94;43.61;100865.16;2066924;28;907;-55
2022/06/14 03:47:33;;;;;;;;;;;;;;;22.94;44.42;100862.44;2066918;28;1017;-55
2022/06/14 03:48:35;;;;;;;;;;;;;;;22.95;44.48;100867.81;2066862;28;1890;-55
2022/06/14 03:49:37;;;;;;;;;;;;;;;22.94;43.71;100862.44;2066939;28;1056;-55
2022/06/14 03:50:43;;;;;;;;;;;;;;;22.93;44.35;100864.28;2066958;28;1006;-55
2022/06/14 03:51:52;;;;;;;;;;;;;;;22.97;44.38;100866.81;2066919;28;959;-55
2022/06/14 03:53:01;;;;;;;;;;;;;;;22.95;43.70;100869.59;2067001;28;825;-55
2022/06/14 03:54:01;;;;;;;;;;;;;;;22.97;44.31;100869.53;2066990;28;958;-56
2022/06/14 03:55:20;;;;;;;;;;;;;;;22.95;44.34;100873.19;2066828;28;959;-55
2022/06/14 03:56:29;;;;;;;;;;;;;;;22.94;43.72;100868.75;2066948;28;934;-55
2022/06/14 03:57:37;;;;;;;;;;;;;;;22.94;43.90;100870.56;2066920;28;772;-55
2022/06/14 03:58:47;;;;;;;;;;;;;;;22.93;43.97;100867.00;2066904;28;887;-55
2022/06/14 03:59:54;;;;;;;;;;;;;;;22.93;44.15;100880.50;2066980;28;772;-55
2022/06/14 04:00:58;;;;;;;;;;;;;;;22.93;43.94;100876.91;2066914;28;970;-55
2022/06/14 04:01:58;;;;;;;;;;;;;;;23.02;43.59;100875.59;2066782;28;1311;-55
2022/06/14 04:03:09;;;;;;;;;;;;;;;24.49;40.99;100876.16;2066796;28;962;-55
2022/06/14 04:04:34;;;;;;;;;;;;;;;25.63;38.58;100874.00;2066833;28;850;-55
2022/06/14 04:05:40;;;;;;;;;;;;;;;26.53;36.39;100871.69;2066890;28;784;-55
2022/06/14 04:06:43;;;;;;;;;;;;;;;26.98;35.50;100867.28;2066816;28;1372;-55
2022/06/14 04:07:47;;;;;;;;;;;;;;;27.40;34.86;100869.28;2066826;28;870;-55
2022/06/14 04:08:56;;;;;;;;;;;;;;;27.83;33.99;100873.91;2068364;28;903;-55
2022/06/14 04:10:02;;;;;;;;;;;;;;;28.15;33.17;100866.41;2092246;28;961;-55
2022/06/14 04:11:29;;;;;;;;;;;;;;;28.38;33.23;100874.88;2092252;28;619;-55
2022/06/14 04:12:38;;;;;;;;;;;;;;;28.66;31.95;100873.91;2092240;28;1044;-55
2022/06/14 04:13:55;;;;;;;;;;;;;;;28.95;31.38;100875.66;2092319;28;853;-55
2022/06/14 04:15:13;;;;;;;;;;;;;;;29.29;30.87;100851.50;2092156;28;973;-55
2022/06/14 04:16:28;;;;;;;;;;;;;;;29.61;30.39;100862.00;2092186;28;981;-55
2022/06/14 04:17:40;;;;;;;;;;;;;;;30.10;29.67;100863.03;2092179;28;965;-56
2022/06/14 04:18:52;;;;;;;;;;;;;;;29.74;30.07;100867.41;2083275;28;824;-55
2022/06/14 04:19:57;;;;;;;;;;;;;;;29.86;29.90;100871.13;2084921;28;858;-55
2022/06/14 04:21:01;;;;;;;;;;;;;;;30.34;29.08;100862.16;2092114;28;760;-55
2022/06/14 04:22:11;;;;;;;;;;;;;;;30.46;28.85;100861.25;2092094;28;791;-55
2022/06/14 04:23:16;;;;;;;;;;;;;;;30.90;28.00;100855.28;2092170;28;795;-55
2022/06/14 04:24:25;;;;;;;;;;;;;;;30.91;28.26;100859.75;2092169;28;755;-55
2022/06/14 04:25:43;;;;;;;;;;;;;;;31.14;27.90;100857.06;2092114;28;1028;-55
2022/06/14 04:27:02;;;;;;;;;;;;;;;31.27;27.59;100857.88;2092103;28;984;-55
2022/06/14 04:28:21;;;;;;;;;;;;;;;31.34;27.52;100852.78;2091876;28;1989;-55
2022/06/14 04:29:40;;;;;;;;;;;;;;;31.75;26.95;100861.41;2092074;28;989;-55
2022/06/14 04:30:46;;;;;;;;;;;;;;;32.06;26.35;100857.03;2092031;28;811;-55
2022/06/14 04:31:56;;;;;;;;;;;;;;;32.04;26.36;100852.69;2092083;28;780;-55
2022/06/14 04:32:56;;;;;;;;;;;;;;;32.33;26.16;100860.38;2092076;28;1105;-55
2022/06/14 04:34:08;;;;;;;;;;;;;;;32.59;25.84;100860.91;2092010;28;958;-55
2022/06/14 04:35:19;;;;;;;;;;;;;;;32.60;25.43;100868.13;2092116;28;787;-55
2022/06/14 04:36:29;;;;;;;;;;;;;;;32.62;25.42;100865.28;2092003;28;973;-56
2022/06/14 04:37:35;;;;;;;;;;;;;;;32.73;25.19;100861.59;2091967;28;1235;-55
2022/06/14 04:38:56;;;;;;;;;;;;;;;33.03;24.80;100855.38;2092012;28;826;-55
2022/06/14 04:39:58;;;;;;;;;;;;;;;33.02;24.97;100859.13;2091345;28;958;-55
2022/06/14 04:41:12;;;;;;;;;;;;;;;33.09;24.95;100863.06;2091950;28;969;-55
2022/06/14 04:42:19;;;;;;;;;;;;;;;33.00;25.51;100866.63;2091992;28;992;-55
2022/06/14 04:43:26;;;;;;;;;;;;;;;33.17;24.86;100865.13;2091958;28;890;-55
2022/06/14 04:44:31;;;;;;;;;;;;;;;33.45;24.12;100860.00;2091935;28;996;-55
2022/06/14 04:45:40;;;;;;;;;;;;;;;33.34;24.20;100866.41;2092012;28;886;-55
2022/06/14 04:46:46;;;;;;;;;;;;;;;33.50;24.10;100860.47;2091993;28;498;-55
2022/06/14 04:48:06;;;;;;;;;;;;;;;33.48;24.37;100864.34;2092023;28;845;-55
2022/06/14 04:49:24;;;;;;;;;;;;;;;33.52;24.23;100863.06;2091967;28;965;-55
2022/06/14 04:50:31;;;;;;;;;;;;;;;33.69;24.18;100864.28;2091883;28;874;-55
2022/06/14 04:51:36;;;;;;;;;;;;;;;34.04;23.29;100867.63;2091981;28;903;-55
2022/06/14 04:52:39;;;;;;;;;;;;;;;33.97;23.30;100867.34;2091888;28;1215;-55
2022/06/14 04:53:45;;;;;;;;;;;;;;;33.99;23.51;100873.56;2091324;28;775;-55
2022/06/14 04:54:50;;;;;;;;;;;;;;;33.90;23.76;100872.47;2091933;28;838;-55
2022/06/14 04:55:57;;;;;;;;;;;;;;;33.74;23.68;100873.00;2091881;28;1051;-55
2022/06/14 04:57:09;;;;;;;;;;;;;;;34.08;23.24;100867.22;2091874;28;850;-55
2022/06/14 04:58:11;;;;;;;;;;;;;;;34.20;23.30;100867.09;2091853;28;1039;-55
2022/06/14 04:59:14;;;;;;;;;;;;;;;34.31;22.85;100858.72;2091817;28;862;-55
2022/06/14 05:00:17;;;;;;;;;;;;;;;34.44;22.81;100862.09;2091828;28;1056;-55
2022/06/14 05:01:24;;;;;;;;;;;;;;;34.40;23.06;100870.78;2091849;28;752;-55
2022/06/14 05:02:27;;;;;;;;;;;;;;;34.21;22.81;100866.97;2091704;28;854;-55
2022/06/14 05:03:33;;;;;;;;;;;;;;;34.34;22.87;100863.94;2091784;28;795;-55
2022/06/14 05:04:36;;;;;;;;;;;;;;;34.31;23.18;100864.22;2082876;28;820;-55
2022/06/14 05:05:45;;;;;;;;;;;;;;;34.10;23.56;100870.72;2083026;28;2169;-55
2022/06/14 05:06:52;;;;;;;;;;;;;;;34.25;23.23;100867.53;2096410;28;2089;-55
2022/06/14 05:07:55;;;;;;;;;;;;;;;34.31;23.30;100871.63;2099957;28;1889;-55
2022/06/14 05:08:58;;;;;;;;;;;;;;;34.19;23.52;100870.84;2100015;28;984;-55
2022/06/14 05:09:58;;;;;;;;;;;;;;;34.22;23.14;100867.81;2096798;28;1904;-56
2022/06/14 05:11:19;;;;;;;;;;;;;;;34.56;22.70;100857.34;2082883;28;1376;-55
2022/06/14 05:12:29;;;;;;;;;;;;;;;34.72;22.45;100854.03;2085969;28;1193;-55
2022/06/14 05:13:36;;;;;;;;;;;;;;;34.55;22.74;100858.34;2091773;28;839;-56
2022/06/14 05:14:41;;;;;;;;;;;;;;;34.68;22.55;100855.34;2091683;28;1934;-55
2022/06/14 05:15:49;;;;;;;;;;;;;;;34.86;22.19;100846.31;2091869;28;768;-55
2022/06/14 05:16:55;;;;;;;;;;;;;;;34.58;22.49;100866.31;2091749;28;985;-55
2022/06/14 05:17:58;;;;;;;;;;;;;;;34.57;22.70;100864.56;2091725;28;818;-55
2022/06/14 05:19:09;;;;;;;;;;;;;;;34.78;22.43;100865.44;2091695;28;910;-56
2022/06/14 05:20:32;;;;;;;;;;;;;;;34.83;22.38;100869.50;2091693;28;915;-55
2022/06/14 05:21:39;;;;;;;;;;;;;;;34.95;22.28;100861.09;2083390;28;1344;-55
2022/06/14 05:22:52;;;;;;;;;;;;;;;34.75;22.23;100866.59;2091705;28;775;-55
2022/06/14 05:23:53;;;;;;;;;;;;;;;34.85;22.33;100875.72;2092072;28;1899;-56
2022/06/14 05:24:53;;;;;;;;;;;;;;;34.73;22.46;100872.28;2091633;28;978;-55
2022/06/14 05:26:12;;;;;;;;;;;;;;;34.74;22.33;100876.72;2091632;28;989;-56
2022/06/14 05:27:12;;;;;;;;;;;;;;;34.78;22.49;100873.69;2091653;28;953;-55
2022/06/14 05:28:15;;;;;;;;;;;;;;;35.01;22.25;100866.91;2083627;28;2127;-55
2022/06/14 05:29:15;;;;;;;;;;;;;;;35.04;21.98;100876.75;2091323;28;827;-55
2022/06/14 05:30:18;;;;;;;;;;;;;;;34.69;22.76;100872.69;2099952;28;922;-56
2022/06/14 05:31:47;;;;;;;;;;;;;;;34.55;22.71;100883.09;2099939;28;807;-55
2022/06/14 05:32:55;;;;;;;;;;;;;;;34.82;22.34;100873.28;2070198;28;2093;-56
2022/06/14 05:33:55;;;;;;;;;;;;;;;34.90;22.37;100872.53;2072481;28;2140;-55
2022/06/14 05:34:58;;;;;;;;;;;;;;;34.76;22.37;100872.97;2074246;28;1122;-55
2022/06/14 05:36:04;;;;;;;;;;;;;;;34.89;22.26;100876.28;2073656;28;2017;-55
2022/06/14 05:37:07;;;;;;;;;;;;;;;34.94;22.05;100868.47;2074341;28;878;-55
2022/06/14 05:38:16;;;;;;;;;;;;;;;35.09;21.95;100871.66;2074260;28;890;-55
2022/06/14 05:39:21;;;;;;;;;;;;;;;35.08;22.00;100869.06;2074294;28;1033;-55
2022/06/14 05:40:34;;;;;;;;;;;;;;;34.88;21.89;100869.94;2074362;28;966;-55
2022/06/14 05:41:36;;;;;;;;;;;;;;;34.77;22.22;100878.34;2074329;28;792;-55
2022/06/14 05:42:41;;;;;;;;;;;;;;;34.68;22.28;100874.59;2074313;28;962;-55
2022/06/14 05:43:47;;;;;;;;;;;;;;;35.08;21.92;100878.19;2074295;28;1097;-55
2022/06/14 05:44:51;;;;;;;;;;;;;;;34.77;22.08;100882.94;2074346;28;768;-55
2022/06/14 05:45:55;;;;;;;;;;;;;;;34.81;22.36;100887.16;2072394;28;1910;-55
2022/06/14 05:46:56;;;;;;;;;;;;;;;34.91;22.42;100881.66;2074313;28;990;-55
2022/06/14 05:48:03;;;;;;;;;;;;;;;34.95;22.18;100875.72;2074201;28;1902;-55
2022/06/14 05:49:07;;;;;;;;;;;;;;;34.73;22.48;100885.13;2070294;28;2042;-58
2022/06/14 05:50:15;;;;;;;;;;;;;;;34.76;22.16;100879.34;2066083;28;879;-55
2022/06/14 05:51:17;;;;;;;;;;;;;;;35.02;22.03;100874.16;2066176;28;990;-55